Time;durP1;ratioP1;P1;durP2;ratioP2;P2;SDS_P1;SDS_P2;PMS_P1;PMS_P2;Temp;Humidity;BMP_temperature;BMP_pressure;BME280_temperature;BME280_humidity;BME280_pressure;Samples;Min_cycle;Max_cycle;Signal;HPM_P1;HPM_P2
2023/03/29 00:00:13;;;;;;;;;;;;;;;;;;1037575;28;2822;-56
2023/03/29 00:00:58;;;;;;;;;;;;;;;;;;1039044;28;3998;-54
2023/03/29 00:01:29;;;;;;;;;;;;;;;;;;1038935;28;1875;-55
2023/03/29 00:02:00;;;;;;;;;;;;;;;;;;1038264;28;3868;-53
2023/03/29 00:02:30;;;;;;;;;;;;;;;;;;1036085;28;2798;-54
2023/03/29 00:03:02;;;;;;;;;;;;;;;;;;1036195;28;4091;-54
2023/03/29 00:03:33;;;;;;;;;;;;;;;;;;1035869;28;3091;-55
2023/03/29 00:04:04;;;;;;;;;;;;;;;;;;1037859;28;3785;-55
2023/03/29 00:04:35;;;;;;;;;;;;;;;;;;1037148;28;4440;-55
2023/03/29 00:05:06;;;;;;;;;;;;;;;;;;1036527;28;2664;-53
2023/03/29 00:05:37;;;;;;;;;;;;;;;;;;1037968;28;3892;-54
2023/03/29 00:06:09;;;;;;;;;;;;;;;;;;1037668;28;2784;-53
2023/03/29 00:06:40;;;;;;;;;;;;;;;;;;1036377;28;4271;-56
2023/03/29 00:07:12;;;;;;;;;;;;;;;;;;1034851;28;2799;-55
2023/03/29 00:07:43;;;;;;;;;;;;;;;;;;1038780;28;3886;-53
2023/03/29 00:08:13;;;;;;;;;;;;;;;;;;1038054;28;2711;-56
2023/03/29 00:08:44;;;;;;;;;;;;;;;;;;1039285;28;4168;-54
2023/03/29 00:09:15;;;;;;;;;;;;;;;;;;1038359;28;3180;-55
2023/03/29 00:09:45;;;;;;;;;;;;;;;;;;1036926;28;3897;-53
2023/03/29 00:10:16;;;;;;;;;;;;;;;;;;1037732;28;2610;-53
2023/03/29 00:10:47;;;;;;;;;;;;;;;;;;1040058;28;4042;-55
2023/03/29 00:11:18;;;;;;;;;;;;;;;;;;1036446;28;2821;-57
2023/03/29 00:11:48;;;;;;;;;;;;;;;;;;1039212;28;3986;-55
2023/03/29 00:12:18;;;;;;;;;;;;;;;;;;1038837;28;2529;-56
2023/03/29 00:12:51;;;;;;;;;;;;;;;;;;1039033;28;4061;-53
2023/03/29 00:13:21;;;;;;;;;;;;;;;;;;1037982;28;1713;-57
2023/03/29 00:13:51;;;;;;;;;;;;;;;;;;1036694;28;3770;-54
2023/03/29 00:14:22;;;;;;;;;;;;;;;;;;1040580;28;1882;-56
2023/03/29 00:14:53;;;;;;;;;;;;;;;;;;1037858;28;4033;-55
2023/03/29 00:15:23;;;;;;;;;;;;;;;;;;1038569;28;2835;-54
2023/03/29 00:15:54;;;;;;;;;;;;;;;;;;1039137;28;3914;-55
2023/03/29 00:16:24;;;;;;;;;;;;;;;;;;1036381;28;2777;-56
2023/03/29 00:16:54;;;;;;;;;;;;;;;;;;1039251;28;4380;-52
2023/03/29 00:17:25;;;;;;;;;;;;;;;;;;1038008;28;2474;-56
2023/03/29 00:17:56;;;;;;;;;;;;;;;;;;1037214;28;4264;-56
2023/03/29 00:18:26;;;;;;;;;;;;;;;;;;1039038;28;1920;-56
2023/03/29 00:18:56;;;;;;;;;;;;;;;;;;1037974;28;4229;-55
2023/03/29 00:19:27;;;;;;;;;;;;;;;;;;1038530;28;2923;-55
2023/03/29 00:19:58;;;;;;;;;;;;;;;;;;1036877;28;4001;-54
2023/03/29 00:20:28;;;;;;;;;;;;;;;;;;1038654;28;2181;-57
2023/03/29 00:20:58;;;;;;;;;;;;;;;;;;1036548;28;4038;-56
2023/03/29 00:21:29;;;;;;;;;;;;;;;;;;1040404;28;1648;-54
2023/03/29 00:22:00;;;;;;;;;;;;;;;;;;1039426;28;5014;-55
2023/03/29 00:22:30;;;;;;;;;;;;;;;;;;1036397;28;2827;-54
2023/03/29 00:23:01;;;;;;;;;;;;;;;;;;1038358;28;3729;-55
2023/03/29 00:23:31;;;;;;;;;;;;;;;;;;1038691;28;2794;-54
2023/03/29 00:24:01;;;;;;;;;;;;;;;;;;1039159;28;4115;-56
2023/03/29 00:24:32;;;;;;;;;;;;;;;;;;1036556;28;3203;-56
2023/03/29 00:25:02;;;;;;;;;;;;;;;;;;1039886;28;4772;-55
2023/03/29 00:25:32;;;;;;;;;;;;;;;;;;1038198;28;1863;-51
2023/03/29 00:26:03;;;;;;;;;;;;;;;;;;1037672;28;4115;-53
2023/03/29 00:26:33;;;;;;;;;;;;;;;;;;1038899;28;2773;-55
2023/03/29 00:27:04;;;;;;;;;;;;;;;;;;1034606;28;3958;-57
2023/03/29 00:27:34;;;;;;;;;;;;;;;;;;1038735;28;1856;-57
2023/03/29 00:28:05;;;;;;;;;;;;;;;;;;1037962;28;4875;-56
2023/03/29 00:28:35;;;;;;;;;;;;;;;;;;1038035;28;4032;-56
2023/03/29 00:29:05;;;;;;;;;;;;;;;;;;1035666;28;2490;-56
2023/03/29 00:29:36;;;;;;;;;;;;;;;;;;1039464;28;4038;-55
2023/03/29 00:30:07;;;;;;;;;;;;;;;;;;1036235;28;2798;-56
2023/03/29 00:30:37;;;;;;;;;;;;;;;;;;1037328;28;4973;-55
2023/03/29 00:31:09;;;;;;;;;;;;;;;;;;1039126;28;1797;-55
2023/03/29 00:31:39;;;;;;;;;;;;;;;;;;1036772;28;4062;-57
2023/03/29 00:32:09;;;;;;;;;;;;;;;;;;1037451;28;2883;-52
2023/03/29 00:32:40;;;;;;;;;;;;;;;;;;1039098;28;3957;-54
2023/03/29 00:33:11;;;;;;;;;;;;;;;;;;1037938;28;3217;-53
2023/03/29 00:33:41;;;;;;;;;;;;;;;;;;1037050;28;4066;-55
2023/03/29 00:34:11;;;;;;;;;;;;;;;;;;1038247;28;2245;-54
2023/03/29 00:34:44;;;;;;;;;;;;;;;;;;1037898;28;3960;-54
2023/03/29 00:35:15;;;;;;;;;;;;;;;;;;1036711;28;2973;-54
2023/03/29 00:35:47;;;;;;;;;;;;;;;;;;1038246;28;3894;-54
2023/03/29 00:36:17;;;;;;;;;;;;;;;;;;1039641;28;1747;-54
2023/03/29 00:36:49;;;;;;;;;;;;;;;;;;1036247;28;3906;-55
2023/03/29 00:37:20;;;;;;;;;;;;;;;;;;1038365;28;1753;-54
2023/03/29 00:37:51;;;;;;;;;;;;;;;;;;1038314;28;3935;-52
2023/03/29 00:38:22;;;;;;;;;;;;;;;;;;1039645;28;1740;-55
2023/03/29 00:38:54;;;;;;;;;;;;;;;;;;1038939;28;3910;-53
2023/03/29 00:39:25;;;;;;;;;;;;;;;;;;1036669;28;2766;-53
2023/03/29 00:39:55;;;;;;;;;;;;;;;;;;1037235;28;4032;-56
2023/03/29 00:40:26;;;;;;;;;;;;;;;;;;1037971;28;1969;-56
2023/03/29 00:40:56;;;;;;;;;;;;;;;;;;1038314;28;4160;-51
2023/03/29 00:41:26;;;;;;;;;;;;;;;;;;1035743;28;2400;-54
2023/03/29 00:41:57;;;;;;;;;;;;;;;;;;1035892;28;4020;-53
2023/03/29 00:42:27;;;;;;;;;;;;;;;;;;1038332;28;2800;-55
2023/03/29 00:42:59;;;;;;;;;;;;;;;;;;1038654;28;4126;-57
2023/03/29 00:43:29;;;;;;;;;;;;;;;;;;1036941;28;2226;-54
2023/03/29 00:44:01;;;;;;;;;;;;;;;;;;1038831;28;4144;-56
2023/03/29 00:44:50;;;;;;;;;;;;;;;;;;1037217;28;2033;-56
2023/03/29 00:45:22;;;;;;;;;;;;;;;;;;1037341;28;3973;-56
2023/03/29 00:45:52;;;;;;;;;;;;;;;;;;1038818;28;3872;-54
2023/03/29 00:46:23;;;;;;;;;;;;;;;;;;1039788;28;1713;-55
2023/03/29 00:46:54;;;;;;;;;;;;;;;;;;1037793;28;4524;-55
2023/03/29 00:47:29;;;;;;;;;;;;;;;;;;1037314;28;1916;-56
2023/03/29 00:48:01;;;;;;;;;;;;;;;;;;1038935;28;3938;-54
2023/03/29 00:48:31;;;;;;;;;;;;;;;;;;1038714;28;2265;-57
2023/03/29 00:49:07;;;;;;;;;;;;;;;;;;1036626;28;4034;-52
2023/03/29 00:49:38;;;;;;;;;;;;;;;;;;1036603;28;4020;-58
2023/03/29 00:50:15;;;;;;;;;;;;;;;;;;1038140;28;1906;-56
2023/03/29 00:50:50;;;;;;;;;;;;;;;;;;1035877;28;4232;-54
2023/03/29 00:51:22;;;;;;;;;;;;;;;;;;1038669;28;1961;-54
2023/03/29 00:51:52;;;;;;;;;;;;;;;;;;1035800;28;4040;-53
2023/03/29 00:52:23;;;;;;;;;;;;;;;;;;1035470;28;1964;-57
2023/03/29 00:53:02;;;;;;;;;;;;;;;;;;1036905;28;4026;-54
2023/03/29 00:53:34;;;;;;;;;;;;;;;;;;1038445;28;1875;-56
2023/03/29 00:54:05;;;;;;;;;;;;;;;;;;1036446;28;3672;-56
2023/03/29 00:54:36;;;;;;;;;;;;;;;;;;1033739;28;3795;-56
2023/03/29 00:55:10;;;;;;;;;;;;;;;;;;1033777;28;2786;-56
2023/03/29 00:55:56;;;;;;;;;;;;;;;;;;1034822;28;3883;-54
2023/03/29 00:56:35;;;;;;;;;;;;;;;;;;1037537;28;3036;-53
2023/03/29 00:57:08;;;;;;;;;;;;;;;;;;1037239;28;3760;-53
2023/03/29 00:57:39;;;;;;;;;;;;;;;;;;1036725;28;4057;-54
2023/03/29 00:58:11;;;;;;;;;;;;;;;;;;1038524;28;1780;-56
2023/03/29 00:58:54;;;;;;;;;;;;;;;;;;1038464;28;3882;-57
2023/03/29 00:59:27;;;;;;;;;;;;;;;;;;1036842;28;2324;-53
2023/03/29 00:59:58;;;;;;;;;;;;;;;;;;1036235;28;3934;-57
2023/03/29 01:00:33;;;;;;;;;;;;;;;;;;1038636;28;1890;-57
2023/03/29 01:01:07;;;;;;;;;;;;;;;;;;1037886;28;3810;-53
2023/03/29 01:01:40;;;;;;;;;;;;;;;;;;1039181;28;4063;-54
2023/03/29 01:02:12;;;;;;;;;;;;;;;;;;1037398;28;2672;-54
2023/03/29 01:02:44;;;;;;;;;;;;;;;;;;1038879;28;4416;-54
2023/03/29 01:03:23;;;;;;;;;;;;;;;;;;1038990;28;1828;-56
2023/03/29 01:03:59;;;;;;;;;;;;;;;;;;1036959;28;4105;-55
2023/03/29 01:04:41;;;;;;;;;;;;;;;;;;1036434;28;2774;-56
2023/03/29 01:05:15;;;;;;;;;;;;;;;;;;1034191;28;5198;-56
2023/03/29 01:05:47;;;;;;;;;;;;;;;;;;1033132;28;4030;-57
2023/03/29 01:06:21;;;;;;;;;;;;;;;;;;1035154;28;1843;-57
2023/03/29 01:06:58;;;;;;;;;;;;;;;;;;1034422;28;4087;-55
2023/03/29 01:07:34;;;;;;;;;;;;;;;;;;1033597;28;2843;-55
2023/03/29 01:08:07;;;;;;;;;;;;;;;;;;1035520;28;3671;-57
2023/03/29 01:08:44;;;;;;;;;;;;;;;;;;1033343;28;4028;-56
2023/03/29 01:09:15;;;;;;;;;;;;;;;;;;1034363;28;2775;-54
2023/03/29 01:10:08;;;;;;;;;;;;;;;;;;1034401;28;4031;-54
2023/03/29 01:10:40;;;;;;;;;;;;;;;;;;1035323;28;3872;-56
2023/03/29 01:11:16;;;;;;;;;;;;;;;;;;1034008;28;1959;-54
2023/03/29 01:11:50;;;;;;;;;;;;;;;;;;1034506;28;3892;-57
2023/03/29 01:12:26;;;;;;;;;;;;;;;;;;1033314;28;1832;-54
2023/03/29 01:13:01;;;;;;;;;;;;;;;;;;1034273;28;3964;-57
2023/03/29 01:13:38;;;;;;;;;;;;;;;;;;1031650;28;2687;-54
2023/03/29 01:14:20;;;;;;;;;;;;;;;;;;1032937;28;3599;-54
2023/03/29 01:14:52;;;;;;;;;;;;;;;;;;1033734;28;3923;-57
2023/03/29 01:15:25;;;;;;;;;;;;;;;;;;1034197;28;2649;-55
2023/03/29 01:15:56;;;;;;;;;;;;;;;;;;1034071;28;4057;-55
2023/03/29 01:16:27;;;;;;;;;;;;;;;;;;1032020;28;2384;-56
2023/03/29 01:16:58;;;;;;;;;;;;;;;;;;1033936;28;3785;-55
2023/03/29 01:17:30;;;;;;;;;;;;;;;;;;1034211;28;2825;-57
2023/03/29 01:18:00;;;;;;;;;;;;;;;;;;1033442;28;3768;-54
2023/03/29 01:18:32;;;;;;;;;;;;;;;;;;1036537;28;2190;-56
2023/03/29 01:19:04;;;;;;;;;;;;;;;;;;1032157;28;3958;-55
2023/03/29 01:19:39;;;;;;;;;;;;;;;;;;1034089;28;1722;-54
2023/03/29 01:20:19;;;;;;;;;;;;;;;;;;1033882;28;3876;-54
2023/03/29 01:20:52;;;;;;;;;;;;;;;;;;1032221;28;3883;-56
2023/03/29 01:21:35;;;;;;;;;;;;;;;;;;1033946;28;2824;-57
2023/03/29 01:22:17;;;;;;;;;;;;;;;;;;1034052;28;3954;-54
2023/03/29 01:22:53;;;;;;;;;;;;;;;;;;1033046;28;3935;-55
2023/03/29 01:23:39;;;;;;;;;;;;;;;;;;1035444;28;2766;-57
2023/03/29 01:24:19;;;;;;;;;;;;;;;;;;1031694;28;3760;-54
2023/03/29 01:24:53;;;;;;;;;;;;;;;;;;1034432;28;3779;-55
2023/03/29 01:25:37;;;;;;;;;;;;;;;;;;1034453;28;1825;-56
2023/03/29 01:26:18;;;;;;;;;;;;;;;;;;1033044;28;3914;-56
2023/03/29 01:27:00;;;;;;;;;;;;;;;;;;1033445;28;3764;-56
2023/03/29 01:27:36;;;;;;;;;;;;;;;;;;1034989;28;1869;-55
2023/03/29 01:28:11;;;;;;;;;;;;;;;;;;1036401;28;3734;-54
2023/03/29 01:28:54;;;;;;;;;;;;;;;;;;1036947;28;4198;-55
2023/03/29 01:29:31;;;;;;;;;;;;;;;;;;1039307;28;1694;-55
2023/03/29 01:30:08;;;;;;;;;;;;;;;;;;1037808;28;3887;-56
2023/03/29 01:30:42;;;;;;;;;;;;;;;;;;1037904;28;4042;-56
2023/03/29 01:31:17;;;;;;;;;;;;;;;;;;1037080;28;2711;-57
2023/03/29 01:31:50;;;;;;;;;;;;;;;;;;1038356;28;4068;-56
2023/03/29 01:32:23;;;;;;;;;;;;;;;;;;1038353;28;2271;-57
2023/03/29 01:33:06;;;;;;;;;;;;;;;;;;1038262;28;4274;-56
2023/03/29 01:33:39;;;;;;;;;;;;;;;;;;1039194;28;4096;-56
2023/03/29 01:34:13;;;;;;;;;;;;;;;;;;1037084;28;3232;-53
2023/03/29 01:35:01;;;;;;;;;;;;;;;;;;1038107;28;4028;-57
2023/03/29 01:35:37;;;;;;;;;;;;;;;;;;1037466;28;2793;-56
2023/03/29 01:36:17;;;;;;;;;;;;;;;;;;1032400;28;4013;-57
2023/03/29 01:36:59;;;;;;;;;;;;;;;;;;1033075;28;4045;-56
2023/03/29 01:37:37;;;;;;;;;;;;;;;;;;1033132;28;2752;-57
2023/03/29 01:38:14;;;;;;;;;;;;;;;;;;1033298;28;3918;-56
2023/03/29 01:38:49;;;;;;;;;;;;;;;;;;1035004;28;3958;-55
2023/03/29 01:39:20;;;;;;;;;;;;;;;;;;1032087;28;2788;-55
2023/03/29 01:39:51;;;;;;;;;;;;;;;;;;1034936;28;4046;-55
2023/03/29 01:40:22;;;;;;;;;;;;;;;;;;1032013;28;2949;-57
2023/03/29 01:40:52;;;;;;;;;;;;;;;;;;1034069;28;3786;-57
2023/03/29 01:41:25;;;;;;;;;;;;;;;;;;1033587;28;2746;-54
2023/03/29 01:42:16;;;;;;;;;;;;;;;;;;1033825;28;4039;-56
2023/03/29 01:42:46;;;;;;;;;;;;;;;;;;1033103;28;3899;-53
2023/03/29 01:43:26;;;;;;;;;;;;;;;;;;1038637;28;3008;-55
2023/03/29 01:44:20;;;;;;;;;;;;;;;;;;1036666;28;3942;-54
2023/03/29 01:44:56;;;;;;;;;;;;;;;;;;1035120;28;4038;-55
2023/03/29 01:45:29;;;;;;;;;;;;;;;;;;1037427;28;2512;-55
2023/03/29 01:46:03;;;;;;;;;;;;;;;;;;1038569;28;3924;-56
2023/03/29 01:46:42;;;;;;;;;;;;;;;;;;1036757;28;2863;-54
2023/03/29 01:47:35;;;;;;;;;;;;;;;;;;1039328;28;3941;-55
2023/03/29 01:48:18;;;;;;;;;;;;;;;;;;1035687;28;3821;-56
2023/03/29 01:48:50;;;;;;;;;;;;;;;;;;1036869;28;4153;-54
2023/03/29 01:49:24;;;;;;;;;;;;;;;;;;1039151;28;1671;-55
2023/03/29 01:49:55;;;;;;;;;;;;;;;;;;1037600;28;4055;-56
2023/03/29 01:50:45;;;;;;;;;;;;;;;;;;1039169;28;2829;-55
2023/03/29 01:51:30;;;;;;;;;;;;;;;;;;1036866;28;3874;-55
2023/03/29 01:52:04;;;;;;;;;;;;;;;;;;1032820;28;3929;-54
2023/03/29 01:52:41;;;;;;;;;;;;;;;;;;1033503;28;4011;-57
2023/03/29 01:53:16;;;;;;;;;;;;;;;;;;1032998;28;2910;-55
2023/03/29 01:53:56;;;;;;;;;;;;;;;;;;1033931;28;4077;-54
2023/03/29 01:54:32;;;;;;;;;;;;;;;;;;1036331;28;2710;-55
2023/03/29 01:55:09;;;;;;;;;;;;;;;;;;1036518;28;4035;-54
2023/03/29 01:55:41;;;;;;;;;;;;;;;;;;1035914;28;4046;-55
2023/03/29 01:56:15;;;;;;;;;;;;;;;;;;1036394;28;2781;-57
2023/03/29 01:56:47;;;;;;;;;;;;;;;;;;1038070;28;3972;-57
2023/03/29 01:57:18;;;;;;;;;;;;;;;;;;1038910;28;2136;-57
2023/03/29 01:57:50;;;;;;;;;;;;;;;;;;1037200;28;4425;-56
2023/03/29 01:58:23;;;;;;;;;;;;;;;;;;1038558;28;1850;-56
2023/03/29 01:58:57;;;;;;;;;;;;;;;;;;1036811;28;4031;-56
2023/03/29 01:59:29;;;;;;;;;;;;;;;;;;1036724;28;2671;-55
2023/03/29 02:00:06;;;;;;;;;;;;;;;;;;1037826;28;4010;-52
2023/03/29 02:00:37;;;;;;;;;;;;;;;;;;1037641;28;3904;-55
2023/03/29 02:01:12;;;;;;;;;;;;;;;;;;1039908;28;2619;-55
2023/03/29 02:01:50;;;;;;;;;;;;;;;;;;1036726;28;3793;-57
2023/03/29 02:02:23;;;;;;;;;;;;;;;;;;1038171;28;2306;-55
2023/03/29 02:02:59;;;;;;;;;;;;;;;;;;1038492;28;3987;-57
2023/03/29 02:03:32;;;;;;;;;;;;;;;;;;1039611;28;1664;-57
2023/03/29 02:04:04;;;;;;;;;;;;;;;;;;1037347;28;4251;-57
2023/03/29 02:04:37;;;;;;;;;;;;;;;;;;1038434;28;3953;-55
2023/03/29 02:05:08;;;;;;;;;;;;;;;;;;1038752;28;1936;-55
2023/03/29 02:05:40;;;;;;;;;;;;;;;;;;1038964;28;3884;-55
2023/03/29 02:06:11;;;;;;;;;;;;;;;;;;1037257;28;1902;-56
2023/03/29 02:06:43;;;;;;;;;;;;;;;;;;1038753;28;4202;-53
2023/03/29 02:07:14;;;;;;;;;;;;;;;;;;1038740;28;1704;-56
2023/03/29 02:07:45;;;;;;;;;;;;;;;;;;1038106;28;4040;-55
2023/03/29 02:08:16;;;;;;;;;;;;;;;;;;1038973;28;1701;-55
2023/03/29 02:08:46;;;;;;;;;;;;;;;;;;1037470;28;3941;-54
2023/03/29 02:09:17;;;;;;;;;;;;;;;;;;1039532;28;1688;-57
2023/03/29 02:09:48;;;;;;;;;;;;;;;;;;1037914;28;4022;-56
2023/03/29 02:10:19;;;;;;;;;;;;;;;;;;1038328;28;1682;-56
2023/03/29 02:10:50;;;;;;;;;;;;;;;;;;1036441;28;3805;-55
2023/03/29 02:11:22;;;;;;;;;;;;;;;;;;1036725;28;2940;-54
2023/03/29 02:11:53;;;;;;;;;;;;;;;;;;1037336;28;4222;-57
2023/03/29 02:12:23;;;;;;;;;;;;;;;;;;1036160;28;2748;-57
2023/03/29 02:12:54;;;;;;;;;;;;;;;;;;1038460;28;3912;-54
2023/03/29 02:13:24;;;;;;;;;;;;;;;;;;1039216;28;1744;-56
2023/03/29 02:13:56;;;;;;;;;;;;;;;;;;1038109;28;3910;-55
2023/03/29 02:14:26;;;;;;;;;;;;;;;;;;1039335;28;1688;-55
2023/03/29 02:14:57;;;;;;;;;;;;;;;;;;1038216;28;4252;-56
2023/03/29 02:15:27;;;;;;;;;;;;;;;;;;1038602;28;1660;-57
2023/03/29 02:16:01;;;;;;;;;;;;;;;;;;1037527;28;4104;-55
2023/03/29 02:16:35;;;;;;;;;;;;;;;;;;1039162;28;1816;-55
2023/03/29 02:17:18;;;;;;;;;;;;;;;;;;1038242;28;3801;-55
2023/03/29 02:17:49;;;;;;;;;;;;;;;;;;1036710;28;3863;-54
2023/03/29 02:18:20;;;;;;;;;;;;;;;;;;1034715;28;1936;-56
2023/03/29 02:18:51;;;;;;;;;;;;;;;;;;1032614;28;3940;-54
2023/03/29 02:19:23;;;;;;;;;;;;;;;;;;1034382;28;1791;-57
2023/03/29 02:19:57;;;;;;;;;;;;;;;;;;1034808;28;4080;-56
2023/03/29 02:20:32;;;;;;;;;;;;;;;;;;1033130;28;1927;-55
2023/03/29 02:21:03;;;;;;;;;;;;;;;;;;1033921;28;3914;-56
2023/03/29 02:21:47;;;;;;;;;;;;;;;;;;1034022;28;1776;-53
2023/03/29 02:22:21;;;;;;;;;;;;;;;;;;1033454;28;3887;-58
2023/03/29 02:22:51;;;;;;;;;;;;;;;;;;1032476;28;3998;-56
2023/03/29 02:23:37;;;;;;;;;;;;;;;;;;1035094;28;1770;-56
2023/03/29 02:24:10;;;;;;;;;;;;;;;;;;1033613;28;3846;-56
2023/03/29 02:24:41;;;;;;;;;;;;;;;;;;1034841;28;3877;-56
2023/03/29 02:25:11;;;;;;;;;;;;;;;;;;1033874;28;1862;-56
2023/03/29 02:25:44;;;;;;;;;;;;;;;;;;1034415;28;4032;-52
2023/03/29 02:26:14;;;;;;;;;;;;;;;;;;1034340;28;1868;-55
2023/03/29 02:26:45;;;;;;;;;;;;;;;;;;1034284;28;4047;-54
2023/03/29 02:27:15;;;;;;;;;;;;;;;;;;1033431;28;2762;-55
2023/03/29 02:27:46;;;;;;;;;;;;;;;;;;1034643;28;3965;-56
2023/03/29 02:28:16;;;;;;;;;;;;;;;;;;1032778;28;1993;-53
2023/03/29 02:28:47;;;;;;;;;;;;;;;;;;1033684;28;3888;-54
2023/03/29 02:29:17;;;;;;;;;;;;;;;;;;1032466;28;2807;-54
2023/03/29 02:29:47;;;;;;;;;;;;;;;;;;1034693;28;3819;-56
2023/03/29 02:30:19;;;;;;;;;;;;;;;;;;1034279;28;2528;-57
2023/03/29 02:31:10;;;;;;;;;;;;;;;;;;1034534;28;3928;-54
2023/03/29 02:31:45;;;;;;;;;;;;;;;;;;1034904;28;3878;-56
2023/03/29 02:32:19;;;;;;;;;;;;;;;;;;1033640;28;1915;-55
2023/03/29 02:32:52;;;;;;;;;;;;;;;;;;1032253;28;4035;-55
2023/03/29 02:33:30;;;;;;;;;;;;;;;;;;1034392;28;1876;-57
2023/03/29 02:34:06;;;;;;;;;;;;;;;;;;1034705;28;3824;-57
2023/03/29 02:34:48;;;;;;;;;;;;;;;;;;1031819;28;4491;-55
2023/03/29 02:35:25;;;;;;;;;;;;;;;;;;1032412;28;3527;-56
2023/03/29 02:36:02;;;;;;;;;;;;;;;;;;1033595;28;3969;-56
2023/03/29 02:36:37;;;;;;;;;;;;;;;;;;1032376;28;1864;-54
2023/03/29 02:37:10;;;;;;;;;;;;;;;;;;1034072;28;3925;-57
2023/03/29 02:37:43;;;;;;;;;;;;;;;;;;1032811;28;4108;-57
2023/03/29 02:38:13;;;;;;;;;;;;;;;;;;1030778;28;2797;-56
2023/03/29 02:38:43;;;;;;;;;;;;;;;;;;1033985;28;4045;-56
2023/03/29 02:39:15;;;;;;;;;;;;;;;;;;1034319;28;2300;-55
2023/03/29 02:39:47;;;;;;;;;;;;;;;;;;1032376;28;3768;-57
2023/03/29 02:40:18;;;;;;;;;;;;;;;;;;1035257;28;1791;-53
2023/03/29 02:40:49;;;;;;;;;;;;;;;;;;1033680;28;3943;-56
2023/03/29 02:41:19;;;;;;;;;;;;;;;;;;1034827;28;1839;-56
2023/03/29 02:41:50;;;;;;;;;;;;;;;;;;1034587;28;3910;-55
2023/03/29 02:42:21;;;;;;;;;;;;;;;;;;1034353;28;2317;-54
2023/03/29 02:42:53;;;;;;;;;;;;;;;;;;1032955;28;4032;-56
2023/03/29 02:43:24;;;;;;;;;;;;;;;;;;1032025;28;2383;-54
2023/03/29 02:43:55;;;;;;;;;;;;;;;;;;1034196;28;4002;-56
2023/03/29 02:44:28;;;;;;;;;;;;;;;;;;1033896;28;2230;-55
2023/03/29 02:44:59;;;;;;;;;;;;;;;;;;1033577;28;4280;-56
2023/03/29 02:45:30;;;;;;;;;;;;;;;;;;1032918;28;2309;-55
2023/03/29 02:46:01;;;;;;;;;;;;;;;;;;1032097;28;4049;-56
2023/03/29 02:46:31;;;;;;;;;;;;;;;;;;1033192;28;2082;-56
2023/03/29 02:47:12;;;;;;;;;;;;;;;;;;1033075;28;3873;-55
2023/03/29 02:47:48;;;;;;;;;;;;;;;;;;1032577;28;3970;-57
2023/03/29 02:48:20;;;;;;;;;;;;;;;;;;1032748;28;2997;-55
2023/03/29 02:48:53;;;;;;;;;;;;;;;;;;1032136;28;3904;-56
2023/03/29 02:49:23;;;;;;;;;;;;;;;;;;1033653;28;1777;-55
2023/03/29 02:49:54;;;;;;;;;;;;;;;;;;1030829;28;4035;-57
2023/03/29 02:50:27;;;;;;;;;;;;;;;;;;1034959;28;1640;-57
2023/03/29 02:50:59;;;;;;;;;;;;;;;;;;1033582;28;4028;-56
2023/03/29 02:51:32;;;;;;;;;;;;;;;;;;1035241;28;1894;-56
2023/03/29 02:52:08;;;;;;;;;;;;;;;;;;1034139;28;3962;-57
2023/03/29 02:52:41;;;;;;;;;;;;;;;;;;1031020;28;4200;-54
2023/03/29 02:53:14;;;;;;;;;;;;;;;;;;1030834;28;2696;-56
2023/03/29 02:53:48;;;;;;;;;;;;;;;;;;1033180;28;4011;-54
2023/03/29 02:54:20;;;;;;;;;;;;;;;;;;1032374;28;2315;-57
2023/03/29 02:54:53;;;;;;;;;;;;;;;;;;1031973;28;4023;-55
2023/03/29 02:55:24;;;;;;;;;;;;;;;;;;1031496;28;2132;-54
2023/03/29 02:55:54;;;;;;;;;;;;;;;;;;1032735;28;4248;-54
2023/03/29 02:56:24;;;;;;;;;;;;;;;;;;1034800;28;1966;-55
2023/03/29 02:56:56;;;;;;;;;;;;;;;;;;1033892;28;4039;-53
2023/03/29 02:57:27;;;;;;;;;;;;;;;;;;1033871;28;1997;-54
2023/03/29 02:57:57;;;;;;;;;;;;;;;;;;1033395;28;4564;-58
2023/03/29 02:58:28;;;;;;;;;;;;;;;;;;1032678;28;2891;-57
2023/03/29 02:58:58;;;;;;;;;;;;;;;;;;1032109;28;4050;-54
2023/03/29 02:59:29;;;;;;;;;;;;;;;;;;1034785;28;1685;-56
2023/03/29 02:59:59;;;;;;;;;;;;;;;;;;1033680;28;4001;-52
2023/03/29 03:00:30;;;;;;;;;;;;;;;;;;1032899;28;2253;-56
2023/03/29 03:01:00;;;;;;;;;;;;;;;;;;1033451;28;4006;-54
2023/03/29 03:01:31;;;;;;;;;;;;;;;;;;1032812;28;2242;-58
2023/03/29 03:02:02;;;;;;;;;;;;;;;;;;1033080;28;3908;-53
2023/03/29 03:02:32;;;;;;;;;;;;;;;;;;1034738;28;1777;-58
2023/03/29 03:03:04;;;;;;;;;;;;;;;;;;1033436;28;4113;-53
2023/03/29 03:03:34;;;;;;;;;;;;;;;;;;1034289;28;4173;-54
2023/03/29 03:04:05;;;;;;;;;;;;;;;;;;1033767;28;2564;-55
2023/03/29 03:04:36;;;;;;;;;;;;;;;;;;1032993;28;4056;-57
2023/03/29 03:05:08;;;;;;;;;;;;;;;;;;1033684;28;2347;-55
2023/03/29 03:05:38;;;;;;;;;;;;;;;;;;1032625;28;3880;-54
2023/03/29 03:06:08;;;;;;;;;;;;;;;;;;1033762;28;2729;-56
2023/03/29 03:06:39;;;;;;;;;;;;;;;;;;1034514;28;3769;-55
2023/03/29 03:07:09;;;;;;;;;;;;;;;;;;1033187;28;2551;-55
2023/03/29 03:07:39;;;;;;;;;;;;;;;;;;1033807;28;3942;-54
2023/03/29 03:08:09;;;;;;;;;;;;;;;;;;1031875;28;2813;-54
2023/03/29 03:08:40;;;;;;;;;;;;;;;;;;1034290;28;4060;-55
2023/03/29 03:09:11;;;;;;;;;;;;;;;;;;1033668;28;2121;-55
2023/03/29 03:09:41;;;;;;;;;;;;;;;;;;1031649;28;4236;-56
2023/03/29 03:10:12;;;;;;;;;;;;;;;;;;1033171;28;3023;-55
2023/03/29 03:10:42;;;;;;;;;;;;;;;;;;1031141;28;4026;-57
2023/03/29 03:11:14;;;;;;;;;;;;;;;;;;1034311;28;1872;-54
2023/03/29 03:11:44;;;;;;;;;;;;;;;;;;1032936;28;4029;-56
2023/03/29 03:12:14;;;;;;;;;;;;;;;;;;1033516;28;1838;-54
2023/03/29 03:12:45;;;;;;;;;;;;;;;;;;1034446;28;3996;-56
2023/03/29 03:13:15;;;;;;;;;;;;;;;;;;1032172;28;2356;-54
2023/03/29 03:13:46;;;;;;;;;;;;;;;;;;1032127;28;3967;-57
2023/03/29 03:14:17;;;;;;;;;;;;;;;;;;1034150;28;1985;-54
2023/03/29 03:14:48;;;;;;;;;;;;;;;;;;1033555;28;4057;-57
2023/03/29 03:15:19;;;;;;;;;;;;;;;;;;1029909;28;2815;-56
2023/03/29 03:15:50;;;;;;;;;;;;;;;;;;1032784;28;3864;-54
2023/03/29 03:16:20;;;;;;;;;;;;;;;;;;1032549;28;1827;-57
2023/03/29 03:16:51;;;;;;;;;;;;;;;;;;1034257;28;4035;-57
2023/03/29 03:17:21;;;;;;;;;;;;;;;;;;1033885;28;3676;-55
2023/03/29 03:17:53;;;;;;;;;;;;;;;;;;1033874;28;3863;-54
2023/03/29 03:18:23;;;;;;;;;;;;;;;;;;1030301;28;2799;-55
2023/03/29 03:18:54;;;;;;;;;;;;;;;;;;1032421;28;4055;-55
2023/03/29 03:19:24;;;;;;;;;;;;;;;;;;1030723;28;2729;-52
2023/03/29 03:19:55;;;;;;;;;;;;;;;;;;1033540;28;3890;-56
2023/03/29 03:20:25;;;;;;;;;;;;;;;;;;1033294;28;2240;-55
2023/03/29 03:21:00;;;;;;;;;;;;;;;;;;1031666;28;3964;-57
2023/03/29 03:21:30;;;;;;;;;;;;;;;;;;1032775;28;2807;-57
2023/03/29 03:22:00;;;;;;;;;;;;;;;;;;1033035;28;3951;-53
2023/03/29 03:22:31;;;;;;;;;;;;;;;;;;1034095;28;2166;-56
2023/03/29 03:23:02;;;;;;;;;;;;;;;;;;1031345;28;3846;-55
2023/03/29 03:23:32;;;;;;;;;;;;;;;;;;1033904;28;2665;-53
2023/03/29 03:24:03;;;;;;;;;;;;;;;;;;1034007;28;4196;-55
2023/03/29 03:24:34;;;;;;;;;;;;;;;;;;1032760;28;1766;-55
2023/03/29 03:25:05;;;;;;;;;;;;;;;;;;1032790;28;3870;-55
2023/03/29 03:25:35;;;;;;;;;;;;;;;;;;1033465;28;3958;-56
2023/03/29 03:26:05;;;;;;;;;;;;;;;;;;1033510;28;3084;-54
2023/03/29 03:26:37;;;;;;;;;;;;;;;;;;1032399;28;4052;-52
2023/03/29 03:27:07;;;;;;;;;;;;;;;;;;1033793;28;1650;-58
2023/03/29 03:27:37;;;;;;;;;;;;;;;;;;1031733;28;4067;-55
2023/03/29 03:28:09;;;;;;;;;;;;;;;;;;1034879;28;1853;-55
2023/03/29 03:28:39;;;;;;;;;;;;;;;;;;1031591;28;3942;-56
2023/03/29 03:29:10;;;;;;;;;;;;;;;;;;1033150;28;2714;-56
2023/03/29 03:29:40;;;;;;;;;;;;;;;;;;1033967;28;4427;-57
2023/03/29 03:30:11;;;;;;;;;;;;;;;;;;1032454;28;2638;-55
2023/03/29 03:30:42;;;;;;;;;;;;;;;;;;1031675;28;4082;-56
2023/03/29 03:31:12;;;;;;;;;;;;;;;;;;1035092;28;1682;-56
2023/03/29 03:31:43;;;;;;;;;;;;;;;;;;1032850;28;4077;-55
2023/03/29 03:32:13;;;;;;;;;;;;;;;;;;1034664;28;2652;-57
2023/03/29 03:32:43;;;;;;;;;;;;;;;;;;1034461;28;3864;-55
2023/03/29 03:33:14;;;;;;;;;;;;;;;;;;1034490;28;1737;-54
2023/03/29 03:33:44;;;;;;;;;;;;;;;;;;1032591;28;4101;-56
2023/03/29 03:34:15;;;;;;;;;;;;;;;;;;1034545;28;1983;-54
2023/03/29 03:34:45;;;;;;;;;;;;;;;;;;1035046;28;3962;-56
2023/03/29 03:35:15;;;;;;;;;;;;;;;;;;1034992;28;1856;-54
2023/03/29 03:35:46;;;;;;;;;;;;;;;;;;1034303;28;4228;-56
2023/03/29 03:36:17;;;;;;;;;;;;;;;;;;1033813;28;2836;-55
2023/03/29 03:36:47;;;;;;;;;;;;;;;;;;1033999;28;3861;-55
2023/03/29 03:37:18;;;;;;;;;;;;;;;;;;1031231;28;2784;-58
2023/03/29 03:37:49;;;;;;;;;;;;;;;;;;1035530;28;4031;-57
2023/03/29 03:38:19;;;;;;;;;;;;;;;;;;1033905;28;2661;-57
2023/03/29 03:38:50;;;;;;;;;;;;;;;;;;1033959;28;3916;-55
2023/03/29 03:39:20;;;;;;;;;;;;;;;;;;1034210;28;2519;-56
2023/03/29 03:39:51;;;;;;;;;;;;;;;;;;1034332;28;4175;-56
2023/03/29 03:40:21;;;;;;;;;;;;;;;;;;1035585;28;1772;-57
2023/03/29 03:40:52;;;;;;;;;;;;;;;;;;1033934;28;4052;-55
2023/03/29 03:41:24;;;;;;;;;;;;;;;;;;1034830;28;1816;-56
2023/03/29 03:41:55;;;;;;;;;;;;;;;;;;1032751;28;4025;-55
2023/03/29 03:42:28;;;;;;;;;;;;;;;;;;1034167;28;2755;-56
2023/03/29 03:42:58;;;;;;;;;;;;;;;;;;1032490;28;3876;-57
2023/03/29 03:43:29;;;;;;;;;;;;;;;;;;1035996;28;1777;-55
2023/03/29 03:43:59;;;;;;;;;;;;;;;;;;1033575;28;3907;-57
2023/03/29 03:44:29;;;;;;;;;;;;;;;;;;1034347;28;2815;-55
2023/03/29 03:45:00;;;;;;;;;;;;;;;;;;1033354;28;4390;-55
2023/03/29 03:45:31;;;;;;;;;;;;;;;;;;1033397;28;2468;-57
2023/03/29 03:46:01;;;;;;;;;;;;;;;;;;1033580;28;4756;-55
2023/03/29 03:46:31;;;;;;;;;;;;;;;;;;1034951;28;2240;-54
2023/03/29 03:47:03;;;;;;;;;;;;;;;;;;1032293;28;3938;-54
2023/03/29 03:47:36;;;;;;;;;;;;;;;;;;1031217;28;2789;-55
2023/03/29 03:48:06;;;;;;;;;;;;;;;;;;1033416;28;3845;-56